Time;durP1;ratioP1;P1;durP2;ratioP2;P2;SDS_P1;SDS_P2;PMS_P1;PMS_P2;Temp;Humidity;BMP_temperature;BMP_pressure;BME280_temperature;BME280_humidity;BME280_pressure;Samples;Min_cycle;Max_cycle;Signal;HPM_P1;HPM_P2
2020/12/13 00:01:56;;;;;;;51.13;19.60;;;2.30;99.90;;;;;;4386853;32;20209;-69
2020/12/13 00:04:23;;;;;;;45.30;18.87;;;2.40;99.90;;;;;;4387051;32;20532;-74
2020/12/13 00:06:49;;;;;;;54.77;19.30;;;2.40;99.90;;;;;;4383296;32;20152;-73
2020/12/13 00:09:16;;;;;;;52.13;20.00;;;2.40;99.90;;;;;;4391128;32;20202;-74
2020/12/13 00:11:42;;;;;;;52.43;20.37;;;2.50;99.90;;;;;;4377490;32;20153;-73
2020/12/13 00:14:09;;;;;;;50.83;20.40;;;2.50;99.90;;;;;;4372684;32;20417;-73
2020/12/13 00:16:35;;;;;;;55.10;21.60;;;2.40;99.90;;;;;;4381830;32;20433;-73
2020/12/13 00:19:02;;;;;;;55.27;19.93;;;2.30;99.90;;;;;;4383711;32;20147;-74
2020/12/13 00:21:28;;;;;;;55.43;20.90;;;2.40;99.90;;;;;;4379280;32;20168;-74
2020/12/13 00:23:55;;;;;;;56.17;21.17;;;2.20;99.90;;;;;;4373884;32;20152;-74
2020/12/13 00:26:21;;;;;;;53.00;20.67;;;2.20;99.90;;;;;;4379212;32;20151;-73
2020/12/13 00:28:48;;;;;;;53.10;21.23;;;2.30;99.90;;;;;;4379204;32;20140;-74
2020/12/13 00:31:15;;;;;;;56.93;22.03;;;2.30;99.90;;;;;;4390597;32;20179;-74
2020/12/13 00:33:43;;;;;;;60.13;22.93;;;2.20;99.90;;;;;;4391286;32;20206;-73
2020/12/13 00:36:10;;;;;;;55.67;21.17;;;2.30;99.90;;;;;;4391691;32;20156;-74
2020/12/13 00:38:37;;;;;;;60.00;22.67;;;2.30;99.90;;;;;;4393098;32;20233;-73
2020/12/13 00:41:03;;;;;;;56.93;21.87;;;2.30;99.90;;;;;;4396392;32;20178;-73
2020/12/13 00:43:29;;;;;;;53.73;21.57;;;2.30;99.90;;;;;;4397323;32;20230;-73
2020/12/13 00:45:56;;;;;;;58.47;21.70;;;2.30;99.90;;;;;;4395982;32;20151;-73
2020/12/13 00:48:23;;;;;;;56.17;22.50;;;2.20;99.90;;;;;;4395901;32;20173;-73
2020/12/13 00:50:49;;;;;;;61.47;21.93;;;2.30;99.90;;;;;;4395957;32;20422;-73
2020/12/13 00:53:15;;;;;;;55.63;22.07;;;2.30;99.90;;;;;;4397263;32;20195;-74
2020/12/13 00:55:42;;;;;;;59.60;21.60;;;2.20;99.90;;;;;;4396192;32;20196;-73
2020/12/13 00:58:08;;;;;;;57.67;22.03;;;2.20;99.90;;;;;;4395470;32;20152;-74
2020/12/13 01:00:34;;;;;;;57.13;21.57;;;2.10;99.90;;;;;;4395617;32;20461;-74
2020/12/13 01:03:01;;;;;;;60.30;22.17;;;2.10;99.90;;;;;;4396707;32;20182;-73
2020/12/13 01:05:28;;;;;;;55.37;21.27;;;2.10;99.90;;;;;;4395824;32;20139;-73
2020/12/13 01:07:55;;;;;;;54.37;20.40;;;2.20;99.90;;;;;;4395043;32;20233;-74
2020/12/13 01:10:22;;;;;;;51.67;20.87;;;2.20;99.90;;;;;;4397207;32;20174;-74
2020/12/13 01:12:49;;;;;;;54.43;20.97;;;2.20;99.90;;;;;;4395388;32;20151;-73
2020/12/13 01:15:16;;;;;;;56.37;22.13;;;2.30;99.90;;;;;;4389645;32;20531;-74
2020/12/13 01:17:46;;;;;;;55.53;21.83;;;2.30;99.90;;;;;;4395331;32;20197;-73
2020/12/13 01:20:14;;;;;;;58.13;21.70;;;2.30;99.90;;;;;;4396935;32;20151;-73
2020/12/13 01:22:41;;;;;;;50.80;20.23;;;2.40;99.90;;;;;;4395024;32;20148;-74
2020/12/13 01:25:08;;;;;;;54.87;21.57;;;2.30;99.90;;;;;;4395934;32;20179;-73
2020/12/13 01:27:36;;;;;;;55.80;21.10;;;2.30;99.90;;;;;;4395493;32;20529;-74
2020/12/13 01:30:05;;;;;;;55.17;22.13;;;2.30;99.90;;;;;;4395598;32;20166;-73
2020/12/13 01:32:39;;;;;;;56.93;22.00;;;2.30;99.90;;;;;;4395422;32;20462;-73
2020/12/13 01:35:08;;;;;;;49.93;20.10;;;2.30;99.90;;;;;;4397120;32;20139;-73
2020/12/13 01:37:35;;;;;;;52.40;20.83;;;2.30;99.90;;;;;;4395514;32;20139;-74
2020/12/13 01:40:04;;;;;;;53.73;20.63;;;2.30;99.90;;;;;;4395539;32;20210;-74
2020/12/13 01:42:41;;;;;;;55.57;21.77;;;2.40;99.90;;;;;;4395649;32;20202;-73
2020/12/13 01:45:09;;;;;;;50.10;20.33;;;2.40;99.90;;;;;;4381338;32;20592;-72
2020/12/13 01:47:36;;;;;;;52.87;20.80;;;2.40;99.90;;;;;;4392350;32;20210;-75
2020/12/13 01:50:04;;;;;;;50.87;21.37;;;2.40;99.90;;;;;;4384952;32;20151;-75
2020/12/13 01:55:11;;;;;;;55.27;21.57;;;2.30;99.90;;;;;;4383968;32;20170;-74
2020/12/13 01:57:39;;;;;;;52.90;20.53;;;2.40;99.90;;;;;;4367569;32;20245;-74
2020/12/13 02:00:11;;;;;;;47.77;20.80;;;2.50;99.90;;;;;;4383362;32;20194;-74
2020/12/13 02:02:43;;;;;;;55.00;20.63;;;2.50;99.90;;;;;;4380766;32;20250;-75
2020/12/13 02:05:12;;;;;;;52.50;20.07;;;2.50;99.90;;;;;;4369421;32;20156;-76
2020/12/13 02:07:40;;;;;;;54.50;21.00;;;2.50;99.90;;;;;;4390985;32;20230;-76
2020/12/13 02:10:09;;;;;;;49.20;20.10;;;2.50;99.90;;;;;;4384773;32;20171;-75
2020/12/13 02:12:36;;;;;;;52.00;20.10;;;2.50;99.90;;;;;;4374646;32;20169;-75
2020/12/13 02:15:07;;;;;;;52.93;20.73;;;2.50;99.90;;;;;;4377153;32;20191;-75
2020/12/13 02:17:36;;;;;;;50.20;20.37;;;2.60;99.90;;;;;;4377705;32;20190;-75
2020/12/13 02:20:12;;;;;;;46.80;19.17;;;2.60;99.90;;;;;;4374544;32;20467;-76
2020/12/13 02:22:40;;;;;;;49.53;19.70;;;2.60;99.90;;;;;;4382445;32;20151;-76
2020/12/13 02:25:16;;;;;;;49.33;20.13;;;2.50;99.90;;;;;;4378846;32;20186;-75
2020/12/13 02:27:42;;;;;;;46.60;18.73;;;2.50;99.90;;;;;;4368853;32;20140;-76
2020/12/13 02:30:09;;;;;;;47.63;20.10;;;2.50;99.90;;;;;;4375475;32;20149;-75
2020/12/13 02:32:35;;;;;;;42.23;18.27;;;2.40;99.90;;;;;;4372229;32;20214;-75
2020/12/13 02:35:05;;;;;;;45.60;18.30;;;2.40;99.90;;;;;;4379325;32;20156;-74
2020/12/13 02:37:31;;;;;;;41.13;17.20;;;2.40;99.90;;;;;;4368408;32;20202;-75
2020/12/13 02:39:58;;;;;;;40.63;16.67;;;2.40;99.90;;;;;;4375468;32;20180;-75
2020/12/13 02:42:25;;;;;;;38.07;15.77;;;2.40;99.90;;;;;;4371482;32;20548;-75
2020/12/13 02:44:52;;;;;;;41.67;16.77;;;2.30;99.90;;;;;;4380506;32;20183;-75
2020/12/13 02:47:18;;;;;;;38.80;16.30;;;2.30;99.90;;;;;;4366866;32;20174;-77
2020/12/13 02:49:45;;;;;;;36.33;15.60;;;2.40;99.90;;;;;;4376095;32;20210;-77
2020/12/13 02:52:16;;;;;;;34.17;15.47;;;2.40;99.90;;;;;;4370002;32;20175;-75
2020/12/13 02:54:43;;;;;;;32.70;14.73;;;2.30;99.90;;;;;;4380596;32;20203;-75
2020/12/13 02:57:09;;;;;;;35.73;15.03;;;2.30;99.90;;;;;;4367919;32;20474;-76
2020/12/13 02:59:35;;;;;;;33.93;14.20;;;2.40;99.90;;;;;;4380008;32;20192;-76
2020/12/13 03:02:02;;;;;;;34.53;15.77;;;2.40;99.90;;;;;;4374276;32;20157;-76
2020/12/13 03:04:28;;;;;;;28.27;13.87;;;2.40;99.90;;;;;;4371711;32;20265;-76
2020/12/13 03:06:55;;;;;;;29.90;13.63;;;2.40;99.90;;;;;;4380370;32;20163;-76
2020/12/13 03:09:21;;;;;;;35.47;14.77;;;2.30;99.90;;;;;;4366471;32;20156;-77
2020/12/13 03:11:48;;;;;;;35.73;14.07;;;2.30;99.90;;;;;;4375713;32;20230;-77
2020/12/13 03:14:14;;;;;;;32.27;14.33;;;2.30;99.90;;;;;;4369670;32;20239;-77
2020/12/13 03:16:41;;;;;;;31.53;14.30;;;2.30;99.90;;;;;;4370033;32;20149;-77
2020/12/13 03:19:07;;;;;;;31.27;14.37;;;2.30;99.90;;;;;;4376813;32;20179;-78
2020/12/13 03:21:33;;;;;;;31.93;14.47;;;2.30;99.90;;;;;;4377285;32;20140;-77
2020/12/13 03:24:00;;;;;;;32.10;14.37;;;2.40;99.90;;;;;;4368578;32;20144;-77
2020/12/13 03:26:26;;;;;;;38.53;14.77;;;2.40;99.90;;;;;;4378797;32;20143;-77
2020/12/13 03:28:52;;;;;;;32.90;14.97;;;2.40;99.90;;;;;;4370134;32;20212;-76
2020/12/13 03:31:19;;;;;;;37.57;14.90;;;2.40;99.90;;;;;;4376575;32;20166;-76
2020/12/13 03:33:47;;;;;;;32.33;14.73;;;2.40;99.90;;;;;;4375492;32;20202;-76
2020/12/13 03:36:14;;;;;;;32.17;14.17;;;2.40;99.90;;;;;;4371225;32;20163;-76
2020/12/13 03:38:40;;;;;;;31.80;14.03;;;2.30;99.90;;;;;;4371429;32;20170;-76
2020/12/13 03:41:07;;;;;;;35.07;15.20;;;2.30;99.90;;;;;;4376493;32;20231;-75
2020/12/13 03:43:33;;;;;;;32.77;14.37;;;2.30;99.90;;;;;;4376766;32;20207;-75
2020/12/13 03:46:00;;;;;;;35.80;14.77;;;2.30;99.90;;;;;;4368334;32;20160;-75
2020/12/13 03:48:30;;;;;;;29.57;14.10;;;2.30;99.90;;;;;;4378702;32;20160;-75
2020/12/13 03:50:56;;;;;;;33.00;14.67;;;2.30;99.90;;;;;;4369534;32;20242;-75
2020/12/13 03:53:23;;;;;;;35.43;14.70;;;2.40;99.90;;;;;;4378195;32;20436;-75
2020/12/13 03:55:50;;;;;;;33.13;14.27;;;2.40;99.90;;;;;;4375071;32;20177;-75
2020/12/13 03:58:16;;;;;;;32.87;14.67;;;2.50;99.90;;;;;;4369889;32;20170;-76
2020/12/13 04:00:42;;;;;;;30.57;13.67;;;2.50;99.90;;;;;;4379211;32;20482;-75
2020/12/13 04:03:09;;;;;;;31.33;14.03;;;2.40;99.90;;;;;;4366839;32;20147;-75
2020/12/13 04:05:36;;;;;;;34.03;14.73;;;2.50;99.90;;;;;;4377946;32;20132;-75
2020/12/13 04:08:03;;;;;;;31.37;14.13;;;2.50;99.90;;;;;;4373585;32;20389;-76
2020/12/13 04:10:29;;;;;;;31.17;13.50;;;2.40;99.90;;;;;;4370952;32;20402;-74
2020/12/13 04:12:56;;;;;;;30.70;14.37;;;2.40;99.90;;;;;;4376635;32;20269;-73
2020/12/13 04:15:22;;;;;;;29.43;13.07;;;2.40;99.90;;;;;;4379844;32;20152;-76
2020/12/13 04:17:49;;;;;;;33.67;13.73;;;2.40;99.90;;;;;;4381046;32;20199;-74
2020/12/13 04:20:16;;;;;;;31.53;13.87;;;2.40;99.90;;;;;;4381125;32;20132;-73
2020/12/13 04:22:43;;;;;;;31.97;13.63;;;2.40;99.90;;;;;;4380825;32;20151;-74
2020/12/13 04:25:10;;;;;;;27.73;13.73;;;2.50;99.90;;;;;;4380549;32;20136;-73
2020/12/13 04:27:36;;;;;;;27.03;12.20;;;2.50;99.90;;;;;;4381592;32;20191;-73
2020/12/13 04:30:06;;;;;;;27.67;12.43;;;2.40;99.90;;;;;;4381527;32;20162;-77
2020/12/13 04:32:32;;;;;;;26.17;12.33;;;2.40;99.90;;;;;;4367179;32;20469;-73
2020/12/13 04:34:59;;;;;;;25.87;12.50;;;2.40;99.90;;;;;;4382237;32;20474;-73
2020/12/13 04:37:25;;;;;;;30.10;13.10;;;2.40;99.90;;;;;;4381294;32;20144;-73
2020/12/13 04:39:52;;;;;;;24.83;11.87;;;2.40;99.90;;;;;;4382598;32;20151;-74
2020/12/13 04:42:21;;;;;;;28.57;12.60;;;2.50;99.90;;;;;;4380943;32;20352;-74
2020/12/13 04:44:49;;;;;;;28.10;11.97;;;2.40;99.90;;;;;;4381785;32;20493;-74
2020/12/13 04:47:17;;;;;;;25.57;11.00;;;2.40;99.90;;;;;;4382111;32;20145;-73
2020/12/13 04:49:49;;;;;;;27.33;12.40;;;2.50;99.90;;;;;;4381171;32;20136;-73
2020/12/13 04:52:16;;;;;;;23.70;11.07;;;2.50;99.90;;;;;;4381010;32;20228;-73
2020/12/13 04:54:51;;;;;;;25.67;11.17;;;2.40;99.90;;;;;;4367338;32;20448;-73
2020/12/13 04:57:18;;;;;;;25.07;11.50;;;2.40;99.90;;;;;;4381210;32;20239;-73
2020/12/13 04:59:47;;;;;;;25.47;11.63;;;2.30;99.90;;;;;;4382512;32;20148;-73
2020/12/13 05:02:14;;;;;;;24.03;11.43;;;2.40;99.90;;;;;;4381242;32;20572;-73
2020/12/13 05:04:42;;;;;;;25.83;11.80;;;2.40;99.90;;;;;;4380982;32;20194;-73
2020/12/13 05:07:09;;;;;;;25.73;12.07;;;2.30;99.90;;;;;;4381842;32;20199;-73
2020/12/13 05:09:39;;;;;;;21.50;11.77;;;2.40;99.90;;;;;;4381479;32;20200;-73
2020/12/13 05:12:05;;;;;;;25.23;11.83;;;2.40;99.90;;;;;;4380963;32;20140;-74
2020/12/13 05:14:32;;;;;;;26.53;12.93;;;2.40;99.90;;;;;;4380492;32;20175;-75
2020/12/13 05:17:16;;;;;;;24.43;12.27;;;2.40;99.90;;;;;;4380811;32;20167;-73
2020/12/13 05:19:43;;;;;;;25.50;12.23;;;2.20;99.90;;;;;;4382310;32;20250;-75
2020/12/13 05:22:10;;;;;;;25.33;12.23;;;2.30;99.90;;;;;;4382438;32;20202;-73
2020/12/13 05:24:36;;;;;;;24.10;11.47;;;2.30;99.90;;;;;;4380164;32;20182;-73
2020/12/13 05:27:06;;;;;;;23.83;12.17;;;2.30;99.90;;;;;;4380432;32;20553;-74
2020/12/13 05:29:36;;;;;;;27.97;13.27;;;2.30;99.90;;;;;;4381723;32;20208;-74
2020/12/13 05:32:10;;;;;;;23.27;11.50;;;2.20;99.90;;;;;;4390235;32;20152;-74
2020/12/13 05:34:39;;;;;;;22.43;11.20;;;2.30;99.90;;;;;;4395644;32;20251;-74
2020/12/13 05:37:07;;;;;;;23.47;11.37;;;2.20;99.90;;;;;;4397073;32;20182;-74
2020/12/13 05:39:36;;;;;;;22.00;11.93;;;2.20;99.90;;;;;;4397007;32;20219;-73
2020/12/13 05:42:03;;;;;;;25.00;11.90;;;2.20;99.90;;;;;;4395546;32;20147;-74
2020/12/13 05:45:01;;;;;;;25.57;11.53;;;2.20;99.90;;;;;;4395261;32;20182;-74
2020/12/13 05:48:05;;;;;;;26.87;12.33;;;2.10;99.90;;;;;;4396617;32;20666;-74
2020/12/13 05:50:52;;;;;;;27.53;12.13;;;2.10;99.90;;;;;;4396180;32;20140;-73
2020/12/13 05:53:15;;;;;;;28.07;12.17;;;2.20;99.90;;;;;;4396938;32;20217;-74
2020/12/13 05:55:45;;;;;;;29.43;12.77;;;2.20;99.90;;;;;;4395571;32;20163;-74
2020/12/13 05:58:12;;;;;;;27.67;13.00;;;2.30;99.90;;;;;;4395822;32;20417;-74
2020/12/13 06:00:40;;;;;;;27.63;13.00;;;2.30;99.90;;;;;;4391215;32;20212;-74
2020/12/13 06:03:09;;;;;;;30.03;13.47;;;2.30;99.90;;;;;;4381119;32;20202;-74
2020/12/13 06:05:43;;;;;;;31.77;14.10;;;2.40;99.90;;;;;;4381069;32;20148;-74
2020/12/13 06:08:15;;;;;;;33.07;14.63;;;2.30;99.90;;;;;;4387354;32;20163;-74
2020/12/13 06:10:43;;;;;;;35.73;15.57;;;2.30;99.90;;;;;;4391478;32;20153;-74
2020/12/13 06:13:20;;;;;;;34.23;16.27;;;2.20;99.90;;;;;;4389189;32;20222;-74
2020/12/13 06:15:48;;;;;;;37.27;15.53;;;2.30;99.90;;;;;;4396456;32;20503;-73
2020/12/13 06:18:14;;;;;;;38.90;16.17;;;2.30;99.90;;;;;;4394999;32;20396;-74
2020/12/13 06:20:42;;;;;;;41.00;16.17;;;2.20;99.90;;;;;;4395205;32;20144;-74
2020/12/13 06:23:11;;;;;;;36.83;16.83;;;2.20;99.90;;;;;;4395011;32;20231;-75
2020/12/13 06:25:38;;;;;;;45.13;18.70;;;2.20;99.90;;;;;;4394955;32;20179;-75
2020/12/13 06:28:05;;;;;;;40.57;17.37;;;2.20;99.90;;;;;;4394865;32;20480;-75
2020/12/13 06:30:31;;;;;;;38.87;17.27;;;2.30;99.90;;;;;;4394933;32;20190;-75
2020/12/13 06:32:58;;;;;;;43.13;17.40;;;2.30;99.90;;;;;;4396223;32;20512;-75
2020/12/13 06:35:25;;;;;;;47.83;18.17;;;2.40;99.90;;;;;;4393991;32;20167;-75
2020/12/13 06:37:53;;;;;;;44.87;17.87;;;2.30;99.90;;;;;;4394466;32;20143;-74
2020/12/13 06:40:21;;;;;;;48.77;18.70;;;2.30;99.90;;;;;;4394727;32;20147;-75
2020/12/13 06:42:49;;;;;;;50.27;19.67;;;2.30;99.90;;;;;;4388866;32;20425;-75
2020/12/13 06:45:17;;;;;;;52.63;18.90;;;2.30;99.90;;;;;;4388385;32;20136;-75
2020/12/13 06:47:46;;;;;;;50.27;18.33;;;2.30;99.90;;;;;;4394609;32;20143;-75
2020/12/13 06:50:24;;;;;;;52.57;19.47;;;2.30;99.90;;;;;;4394564;32;20420;-75
2020/12/13 06:52:52;;;;;;;54.83;19.00;;;2.30;99.90;;;;;;4394473;32;20155;-75
2020/12/13 06:55:30;;;;;;;58.00;19.53;;;2.30;99.90;;;;;;4389127;32;20227;-75
2020/12/13 06:57:59;;;;;;;50.07;19.33;;;2.30;99.90;;;;;;4382401;32;20219;-75
2020/12/13 07:00:26;;;;;;;53.83;20.80;;;2.30;99.90;;;;;;4394413;32;20157;-75
2020/12/13 07:02:57;;;;;;;59.10;22.47;;;2.20;99.90;;;;;;4394435;32;20189;-75
2020/12/13 07:05:44;;;;;;;55.30;20.60;;;2.30;99.90;;;;;;4395863;32;20131;-75
2020/12/13 07:08:17;;;;;;;58.40;20.73;;;2.30;99.90;;;;;;4394322;32;20182;-75
2020/12/13 07:10:47;;;;;;;56.57;20.73;;;2.30;99.90;;;;;;4395559;32;20139;-75
2020/12/13 07:13:18;;;;;;;54.10;20.57;;;2.30;99.90;;;;;;4394019;32;20181;-75
2020/12/13 07:15:54;;;;;;;53.63;20.97;;;2.30;99.90;;;;;;4394206;32;20199;-75
2020/12/13 07:18:22;;;;;;;56.87;21.10;;;2.40;99.90;;;;;;4395600;32;20139;-74
2020/12/13 07:20:49;;;;;;;57.73;21.50;;;2.40;99.90;;;;;;4394195;32;20143;-75
2020/12/13 07:23:15;;;;;;;59.83;21.77;;;2.50;99.90;;;;;;4395476;32;20174;-74
2020/12/13 07:25:42;;;;;;;53.07;20.53;;;2.50;99.90;;;;;;4393898;32;20151;-75
2020/12/13 07:28:08;;;;;;;51.50;20.37;;;2.50;99.90;;;;;;4394024;32;20296;-75
2020/12/13 07:30:37;;;;;;;48.60;19.33;;;2.50;99.90;;;;;;4394049;32;20158;-75
2020/12/13 07:33:04;;;;;;;42.40;18.80;;;2.50;99.90;;;;;;4395196;32;20155;-75
2020/12/13 07:35:33;;;;;;;43.40;18.73;;;2.50;99.90;;;;;;4395234;32;20185;-75
2020/12/13 07:38:00;;;;;;;39.90;17.17;;;2.40;99.90;;;;;;4394018;32;20171;-75
2020/12/13 07:40:28;;;;;;;44.93;18.13;;;2.40;99.90;;;;;;4393954;32;20140;-76
2020/12/13 07:42:56;;;;;;;38.83;17.33;;;2.40;99.90;;;;;;4394043;32;20195;-75
2020/12/13 07:45:22;;;;;;;40.93;17.47;;;2.50;99.90;;;;;;4393883;32;20152;-75
2020/12/13 07:48:00;;;;;;;37.27;16.90;;;2.50;99.90;;;;;;4395264;32;20177;-74
2020/12/13 07:50:29;;;;;;;37.03;16.43;;;2.50;99.90;;;;;;4398639;32;20226;-74
2020/12/13 07:52:55;;;;;;;39.17;16.77;;;2.40;99.90;;;;;;4396982;32;20155;-74
2020/12/13 07:55:21;;;;;;;38.80;17.07;;;2.40;99.90;;;;;;4396487;32;20149;-75
2020/12/13 07:57:48;;;;;;;39.67;17.20;;;2.50;99.90;;;;;;4397485;32;20562;-75
2020/12/13 08:00:15;;;;;;;40.57;16.73;;;2.50;99.90;;;;;;4396836;32;20454;-76
2020/12/13 08:02:42;;;;;;;37.73;16.90;;;2.50;99.90;;;;;;4396896;32;20182;-76
2020/12/13 08:05:10;;;;;;;38.90;16.50;;;2.60;99.90;;;;;;4397116;32;20225;-76
2020/12/13 08:07:37;;;;;;;38.60;16.80;;;2.60;99.90;;;;;;4397009;32;20191;-74
2020/12/13 08:10:04;;;;;;;41.93;17.93;;;2.60;99.90;;;;;;4396670;32;20171;-76
2020/12/13 08:12:34;;;;;;;47.70;18.43;;;2.60;99.90;;;;;;4397855;32;20398;-76
2020/12/13 08:15:00;;;;;;;49.37;19.53;;;2.60;99.90;;;;;;4398150;32;20140;-75
2020/12/13 08:17:27;;;;;;;43.47;18.57;;;2.60;99.90;;;;;;4396560;32;20173;-75
2020/12/13 08:20:00;;;;;;;47.83;19.50;;;2.60;99.90;;;;;;4398082;32;20206;-76
2020/12/13 08:22:28;;;;;;;44.53;18.63;;;2.60;99.90;;;;;;4398258;32;20458;-75
2020/12/13 08:24:57;;;;;;;44.23;19.43;;;2.60;99.90;;;;;;4396544;32;20170;-75
2020/12/13 08:27:26;;;;;;;48.23;19.83;;;2.60;99.90;;;;;;4397987;32;20170;-75
2020/12/13 08:29:53;;;;;;;47.30;19.47;;;2.60;99.90;;;;;;4396662;32;20143;-76
2020/12/13 08:32:28;;;;;;;48.13;19.47;;;2.50;99.90;;;;;;4397805;32;20151;-77
2020/12/13 08:35:07;;;;;;;45.63;19.23;;;2.60;99.90;;;;;;4395954;32;20139;-75
2020/12/13 08:37:33;;;;;;;50.27;19.33;;;2.50;99.90;;;;;;4398201;32;20161;-75
2020/12/13 08:39:59;;;;;;;45.63;18.90;;;2.60;99.90;;;;;;4396702;32;20414;-76
2020/12/13 08:42:26;;;;;;;48.33;19.03;;;2.60;99.90;;;;;;4397747;32;20470;-76
2020/12/13 08:44:52;;;;;;;49.63;18.97;;;2.60;99.90;;;;;;4396292;32;20170;-76
2020/12/13 08:47:20;;;;;;;46.00;18.03;;;2.60;99.90;;;;;;4396295;32;20168;-76
2020/12/13 08:49:49;;;;;;;46.80;19.50;;;2.60;99.90;;;;;;4396242;32;20182;-76
2020/12/13 08:52:27;;;;;;;49.47;19.27;;;2.60;99.90;;;;;;4396391;32;20453;-74
2020/12/13 08:55:04;;;;;;;40.87;17.17;;;2.60;99.90;;;;;;4396910;32;20273;-76
2020/12/13 08:57:48;;;;;;;44.93;19.37;;;2.60;99.90;;;;;;4396350;32;20166;-76
2020/12/13 09:00:16;;;;;;;47.83;19.63;;;2.50;99.90;;;;;;4396828;32;20155;-76
2020/12/13 09:02:58;;;;;;;49.80;19.63;;;2.50;99.90;;;;;;4397452;32;20170;-76
2020/12/13 09:05:30;;;;;;;48.50;19.00;;;2.50;99.90;;;;;;4395898;32;20166;-75
2020/12/13 09:07:58;;;;;;;50.97;20.87;;;2.50;99.90;;;;;;4395915;32;20520;-76
2020/12/13 09:10:27;;;;;;;45.60;19.47;;;2.50;99.90;;;;;;4395483;32;20182;-75
2020/12/13 09:12:54;;;;;;;43.40;20.10;;;2.40;99.90;;;;;;4396415;32;20170;-75
2020/12/13 09:15:22;;;;;;;51.70;18.87;;;2.40;99.90;;;;;;4397214;32;20163;-76
2020/12/13 09:17:59;;;;;;;48.93;19.70;;;2.40;99.90;;;;;;4395787;32;20176;-75
2020/12/13 09:20:36;;;;;;;45.97;19.83;;;2.40;99.90;;;;;;4395939;32;20173;-74
2020/12/13 09:23:20;;;;;;;43.83;18.83;;;2.40;99.90;;;;;;4397186;32;20189;-73
2020/12/13 09:25:48;;;;;;;45.57;20.27;;;2.50;99.90;;;;;;4395733;32;20135;-75
2020/12/13 09:28:16;;;;;;;46.63;19.40;;;2.50;99.90;;;;;;4397027;32;20205;-73
2020/12/13 09:30:50;;;;;;;49.57;20.10;;;2.40;99.90;;;;;;4396309;32;20160;-78
2020/12/13 09:33:16;;;;;;;45.90;19.60;;;2.30;99.90;;;;;;4395527;32;20222;-74
2020/12/13 09:35:43;;;;;;;45.00;19.93;;;2.20;99.90;;;;;;4395372;32;20178;-74
2020/12/13 09:38:10;;;;;;;50.87;19.97;;;2.20;99.90;;;;;;4396542;32;20136;-73
2020/12/13 09:40:37;;;;;;;50.07;20.33;;;2.20;99.90;;;;;;4395431;32;20139;-72
2020/12/13 09:43:04;;;;;;;50.50;20.90;;;2.00;99.90;;;;;;4394732;32;20147;-73
2020/12/13 09:45:31;;;;;;;52.07;20.27;;;2.10;99.90;;;;;;4395174;32;20211;-73
2020/12/13 09:47:58;;;;;;;50.13;20.23;;;2.10;99.90;;;;;;4396763;32;20186;-74
2020/12/13 09:50:27;;;;;;;49.00;20.90;;;1.90;99.90;;;;;;4395128;32;20408;-74
2020/12/13 09:52:54;;;;;;;54.17;19.77;;;2.00;99.90;;;;;;4395038;32;20143;-73
2020/12/13 09:55:21;;;;;;;51.40;21.47;;;1.90;99.90;;;;;;4396516;32;20135;-72
2020/12/13 09:57:47;;;;;;;51.37;20.60;;;1.90;99.90;;;;;;4395016;32;20499;-75
2020/12/13 10:00:14;;;;;;;45.80;19.93;;;1.90;99.90;;;;;;4394968;32;20163;-72
2020/12/13 10:02:41;;;;;;;52.37;20.57;;;2.00;99.90;;;;;;4395141;32;20143;-72
2020/12/13 10:05:18;;;;;;;50.10;20.13;;;2.10;99.90;;;;;;4395289;32;20203;-72
2020/12/13 10:10:14;;;;;;;54.07;20.60;;;2.10;99.90;;;;;;4394690;32;20413;-73
2020/12/13 10:12:41;;;;;;;52.77;21.23;;;2.20;99.90;;;;;;4395052;32;20372;-73
2020/12/13 10:15:10;;;;;;;49.63;20.20;;;2.10;99.90;;;;;;4396435;32;20182;-73
2020/12/13 10:17:40;;;;;;;53.83;21.07;;;2.20;99.90;;;;;;4396404;32;20139;-75
2020/12/13 10:20:06;;;;;;;54.73;22.17;;;2.20;99.90;;;;;;4394576;32;20147;-75
2020/12/13 10:22:33;;;;;;;59.17;23.10;;;2.00;99.90;;;;;;4394832;32;20193;-75
2020/12/13 10:24:59;;;;;;;52.80;20.77;;;2.00;99.90;;;;;;4395019;32;20194;-74
2020/12/13 10:27:26;;;;;;;53.73;21.93;;;2.00;99.90;;;;;;4396018;32;20212;-72
2020/12/13 10:29:52;;;;;;;47.67;19.93;;;2.00;99.90;;;;;;4394650;32;20458;-72
2020/12/13 10:32:19;;;;;;;48.93;21.07;;;2.10;99.90;;;;;;4394725;32;20197;-72
2020/12/13 10:34:45;;;;;;;49.67;20.93;;;2.10;99.90;;;;;;4394605;32;20155;-73
2020/12/13 10:37:12;;;;;;;51.50;21.63;;;2.20;99.90;;;;;;4396088;32;20537;-72
2020/12/13 10:39:38;;;;;;;49.20;20.77;;;2.20;99.90;;;;;;4394447;32;20182;-72
2020/12/13 10:42:07;;;;;;;45.23;20.77;;;2.20;99.90;;;;;;4394665;32;20147;-72
2020/12/13 10:44:33;;;;;;;46.43;20.27;;;2.10;99.90;;;;;;4394968;32;20139;-73
2020/12/13 10:47:00;;;;;;;49.20;21.60;;;2.10;99.90;;;;;;4394435;32;20147;-73
2020/12/13 10:49:27;;;;;;;47.47;20.37;;;2.20;99.90;;;;;;4395330;32;20144;-74
2020/12/13 10:51:53;;;;;;;51.23;21.23;;;2.10;99.90;;;;;;4393798;32;20174;-73
2020/12/13 10:54:20;;;;;;;50.43;21.13;;;2.20;99.90;;;;;;4394324;32;20214;-72
2020/12/13 10:56:46;;;;;;;45.20;20.87;;;2.20;99.90;;;;;;4395616;32;20458;-75
2020/12/13 10:59:12;;;;;;;49.33;20.77;;;2.20;99.90;;;;;;4394094;32;20190;-74
2020/12/13 11:01:39;;;;;;;52.27;21.73;;;2.20;99.90;;;;;;4395048;32;20359;-74
2020/12/13 11:04:06;;;;;;;48.17;21.10;;;2.20;99.90;;;;;;4394164;32;20155;-75
2020/12/13 11:06:32;;;;;;;52.03;21.93;;;2.20;99.90;;;;;;4393806;32;20194;-72
2020/12/13 11:09:04;;;;;;;51.53;20.93;;;2.30;99.90;;;;;;4390934;32;20265;-72
2020/12/13 11:11:30;;;;;;;54.60;22.27;;;2.30;99.90;;;;;;4384308;32;20156;-73
2020/12/13 11:13:56;;;;;;;52.50;22.20;;;2.30;99.90;;;;;;4380217;32;20205;-72
2020/12/13 11:16:23;;;;;;;49.70;21.67;;;2.30;99.90;;;;;;4380393;32;20147;-73
2020/12/13 11:18:49;;;;;;;47.30;20.83;;;2.20;99.90;;;;;;4379026;32;20156;-72
2020/12/13 11:21:16;;;;;;;49.40;22.27;;;2.20;99.90;;;;;;4379522;32;20419;-73
2020/12/13 11:23:43;;;;;;;53.43;22.27;;;2.20;99.90;;;;;;4379084;32;20140;-72
2020/12/13 11:26:09;;;;;;;54.63;22.23;;;2.30;99.90;;;;;;4378890;32;20201;-71
2020/12/13 11:28:36;;;;;;;52.57;22.07;;;2.20;99.90;;;;;;4380021;32;20155;-73
2020/12/13 11:31:02;;;;;;;52.97;22.23;;;2.20;99.90;;;;;;4378738;32;20148;-74
2020/12/13 11:33:29;;;;;;;52.30;21.93;;;2.20;99.90;;;;;;4378502;32;20183;-73
2020/12/13 11:35:55;;;;;;;58.23;23.80;;;2.30;99.90;;;;;;4379963;32;20207;-73
2020/12/13 11:38:22;;;;;;;52.17;22.63;;;2.20;99.90;;;;;;4379719;32;20170;-73
2020/12/13 11:40:48;;;;;;;53.97;22.27;;;2.30;99.90;;;;;;4378334;32;20169;-73
2020/12/13 11:43:14;;;;;;;55.63;23.77;;;2.30;99.90;;;;;;4380033;32;20191;-74
2020/12/13 11:45:41;;;;;;;52.77;22.67;;;2.30;99.90;;;;;;4378070;32;20140;-74
2020/12/13 11:48:08;;;;;;;58.10;23.63;;;2.30;99.90;;;;;;4377866;32;20420;-75
2020/12/13 11:50:40;;;;;;;57.07;24.00;;;2.20;99.90;;;;;;4379901;32;20155;-74
2020/12/13 11:53:08;;;;;;;58.97;24.47;;;2.30;99.90;;;;;;4378581;32;20152;-75
2020/12/13 11:55:36;;;;;;;53.00;22.83;;;2.40;99.90;;;;;;4378581;32;20143;-75
2020/12/13 11:58:03;;;;;;;54.97;23.93;;;2.40;99.90;;;;;;4379875;32;20151;-74
2020/12/13 12:00:29;;;;;;;50.07;21.63;;;2.30;99.90;;;;;;4378643;32;20492;-74
2020/12/13 12:02:56;;;;;;;54.93;23.27;;;2.30;99.90;;;;;;4378496;32;20144;-74
2020/12/13 12:05:22;;;;;;;51.87;22.20;;;2.40;99.90;;;;;;4380163;32;20408;-74
2020/12/13 12:07:49;;;;;;;49.93;21.43;;;2.50;99.90;;;;;;4378780;32;20202;-72
2020/12/13 12:10:15;;;;;;;48.63;21.60;;;2.50;99.90;;;;;;4380160;32;20551;-73
2020/12/13 12:12:42;;;;;;;47.80;21.20;;;2.60;99.90;;;;;;4378122;32;20199;-74
2020/12/13 12:15:08;;;;;;;47.47;21.13;;;2.60;99.90;;;;;;4366749;32;20467;-73
2020/12/13 12:17:35;;;;;;;55.63;22.50;;;2.60;99.90;;;;;;4370809;32;20232;-73
2020/12/13 12:20:04;;;;;;;48.67;21.53;;;2.70;99.90;;;;;;4368250;32;20175;-73
2020/12/13 12:22:30;;;;;;;46.97;21.80;;;2.60;99.90;;;;;;4375724;32;20186;-72
2020/12/13 12:24:57;;;;;;;48.47;20.90;;;2.60;99.90;;;;;;4368107;32;20170;-71
2020/12/13 12:27:23;;;;;;;50.47;21.43;;;2.70;99.90;;;;;;4378006;32;20175;-71
2020/12/13 12:29:50;;;;;;;46.13;20.10;;;2.60;99.90;;;;;;4369960;32;20160;-72
2020/12/13 12:32:16;;;;;;;46.93;19.93;;;2.60;99.90;;;;;;4374611;32;20151;-71
2020/12/13 12:34:43;;;;;;;48.60;20.67;;;2.60;99.90;;;;;;4378284;32;20420;-70
2020/12/13 12:37:10;;;;;;;49.23;20.43;;;2.60;99.90;;;;;;4370867;32;20214;-73
2020/12/13 12:39:36;;;;;;;48.83;21.13;;;2.50;99.90;;;;;;4380878;32;20182;-72
2020/12/13 12:42:03;;;;;;;46.17;19.73;;;2.50;99.90;;;;;;4370785;32;20203;-72
2020/12/13 12:44:29;;;;;;;47.97;21.40;;;2.40;99.90;;;;;;4378628;32;20202;-72
2020/12/13 12:46:56;;;;;;;47.20;20.30;;;2.50;99.90;;;;;;4377486;32;20148;-72